Time;durP1;ratioP1;P1;durP2;ratioP2;P2;SDS_P1;SDS_P2;PMS_P1;PMS_P2;Temp;Humidity;BMP_temperature;BMP_pressure;BME280_temperature;BME280_humidity;BME280_pressure;Samples;Min_cycle;Max_cycle;Signal;HPM_P1;HPM_P2
2021/10/03 00:01:29;;;;;;;5.50;5.10;;;;;;;12.37;81.56;95328.28;5082990;28;20105;-67
2021/10/03 00:03:55;;;;;;;6.28;5.38;;;;;;;12.33;81.64;95327.78;5089569;28;20032;-67
2021/10/03 00:06:21;;;;;;;5.78;4.72;;;;;;;12.48;80.83;95314.75;5087379;28;20035;-67
2021/10/03 00:08:46;;;;;;;5.47;5.03;;;;;;;12.45;81.51;95312.44;5083907;28;20043;-67
2021/10/03 00:11:13;;;;;;;8.35;4.80;;;;;;;12.41;81.65;95303.22;5084335;28;20040;-67
2021/10/03 00:13:38;;;;;;;5.03;4.60;;;;;;;12.52;80.32;95302.91;5082303;28;20040;-67
2021/10/03 00:16:05;;;;;;;7.72;4.68;;;;;;;12.54;79.85;95297.44;5091448;28;20086;-66
2021/10/03 00:18:31;;;;;;;8.65;4.78;;;;;;;12.52;79.53;95284.44;5089149;28;20024;-66
2021/10/03 00:20:57;;;;;;;5.10;4.63;;;;;;;12.58;78.85;95294.31;5087602;28;20043;-67
2021/10/03 00:23:23;;;;;;;4.65;4.30;;;;;;;12.59;78.83;95289.84;5086544;28;20380;-67
2021/10/03 00:25:50;;;;;;;4.75;4.28;;;;;;;12.70;77.96;95276.34;5074998;28;20040;-66
2021/10/03 00:28:16;;;;;;;5.45;4.20;;;;;;;12.64;78.19;95289.38;5080636;28;20032;-67
2021/10/03 00:30:43;;;;;;;7.65;4.15;;;;;;;12.70;77.71;95278.13;5082470;28;20097;-67
2021/10/03 00:33:09;;;;;;;4.45;4.05;;;;;;;12.68;77.90;95277.47;5100999;28;20024;-67
2021/10/03 00:35:35;;;;;;;5.20;4.32;;;;;;;12.70;77.81;95259.66;5091286;28;20039;-66
2021/10/03 00:38:04;;;;;;;5.18;4.68;;;;;;;12.66;78.24;95272.38;5100400;28;20039;-67
2021/10/03 00:40:41;;;;;;;4.97;4.18;;;;;;;12.61;78.30;95250.94;5097714;28;20579;-66
2021/10/03 00:43:11;;;;;;;4.45;4.00;;;;;;;12.66;78.02;95258.34;5080501;28;20032;-65
2021/10/03 00:45:37;;;;;;;5.22;4.70;;;;;;;12.71;77.62;95262.13;5092006;28;20047;-69
2021/10/03 00:48:10;;;;;;;5.38;4.38;;;;;;;12.76;77.50;95261.66;5089478;28;20036;-66
2021/10/03 00:50:44;;;;;;;4.20;3.88;;;;;;;12.69;78.25;95261.47;5082084;28;20620;-66
2021/10/03 00:53:12;;;;;;;6.45;4.10;;;;;;;12.75;77.76;95255.53;5095539;28;20040;-66
2021/10/03 00:55:38;;;;;;;5.70;4.03;;;;;;;12.70;77.71;95247.28;5073193;28;20507;-65
2021/10/03 00:58:05;;;;;;;4.35;4.03;;;;;;;12.70;77.96;95249.94;5083866;28;20474;-66
2021/10/03 01:00:38;;;;;;;5.78;4.32;;;;;;;12.69;78.43;95256.19;5079354;28;20032;-66
2021/10/03 01:03:11;;;;;;;4.93;4.43;;;;;;;12.66;78.95;95251.25;5076050;28;20033;-65
2021/10/03 01:05:43;;;;;;;13.15;4.78;;;;;;;12.62;79.37;95249.94;5072990;28;20032;-66
2021/10/03 01:08:15;;;;;;;4.30;3.90;;;;;;;12.59;79.77;95259.00;5082424;28;20031;-66
2021/10/03 01:10:40;;;;;;;9.32;4.53;;;;;;;12.56;80.11;95243.50;5082106;28;20043;-66
2021/10/03 01:13:12;;;;;;;5.05;4.55;;;;;;;12.54;80.13;95242.00;5075717;28;20040;-66
2021/10/03 01:15:41;;;;;;;5.15;4.53;;;;;;;12.53;80.22;95238.56;5078040;28;20051;-66
2021/10/03 01:18:13;;;;;;;4.20;3.90;;;;;;;12.71;79.31;95229.59;5072903;28;20552;-66
2021/10/03 01:20:40;;;;;;;5.88;4.35;;;;;;;12.68;79.29;95232.59;5086705;28;20038;-67
2021/10/03 01:23:06;;;;;;;4.93;4.47;;;;;;;12.66;78.95;95240.69;5068802;28;20036;-65
2021/10/03 01:25:45;;;;;;;4.22;3.85;;;;;;;12.68;78.88;95229.94;5073587;28;20075;-66
2021/10/03 01:28:15;;;;;;;4.43;3.92;;;;;;;12.67;78.83;95229.13;5085821;28;20029;-65
2021/10/03 01:30:45;;;;;;;4.63;4.10;;;;;;;12.67;79.22;95228.28;5072843;28;20044;-67
2021/10/03 01:33:11;;;;;;;4.25;3.85;;;;;;;12.66;79.63;95226.66;5090216;28;20024;-65
2021/10/03 01:35:37;;;;;;;4.57;4.18;;;;;;;12.60;80.40;95221.03;5088963;28;20514;-67
2021/10/03 01:38:03;;;;;;;4.28;3.97;;;;;;;12.61;79.82;95230.63;5092140;28;20089;-66
2021/10/03 01:40:29;;;;;;;3.95;3.60;;;;;;;12.63;79.23;95229.63;5082401;28;20078;-67
2021/10/03 01:42:55;;;;;;;4.30;4.00;;;;;;;12.64;78.91;95218.06;5061240;28;20032;-65
2021/10/03 01:45:22;;;;;;;4.93;4.10;;;;;;;12.69;78.82;95213.94;5085536;28;20139;-66
2021/10/03 01:48:04;;;;;;;4.00;3.70;;;;;;;12.74;78.97;95218.75;5072289;28;20119;-67
2021/10/03 01:50:32;;;;;;;4.75;4.10;;;;;;;12.74;79.08;95214.25;5083080;28;20139;-66
2021/10/03 01:52:58;;;;;;;3.85;3.55;;;;;;;12.85;78.17;95213.09;5068654;28;20036;-66
2021/10/03 01:55:24;;;;;;;4.82;4.40;;;;;;;12.82;78.59;95216.06;5067402;28;20036;-66
2021/10/03 01:57:58;;;;;;;4.85;4.35;;;;;;;12.81;78.46;95219.72;5087780;28;20036;-66
2021/10/03 02:00:24;;;;;;;8.93;4.30;;;;;;;12.80;78.76;95220.69;5085756;28;20051;-66
2021/10/03 02:03:00;;;;;;;4.20;3.90;;;;;;;12.80;78.98;95217.22;5081518;28;20036;-66
2021/10/03 02:05:27;;;;;;;6.22;4.72;;;;;;;12.78;78.93;95219.19;5058831;28;20040;-66
2021/10/03 02:07:53;;;;;;;3.90;3.60;;;;;;;12.84;78.28;95229.94;5072572;28;20036;-66
2021/10/03 02:10:19;;;;;;;6.35;4.43;;;;;;;12.85;78.39;95234.22;5071431;28;20495;-66
2021/10/03 02:12:50;;;;;;;4.53;4.20;;;;;;;12.88;78.14;95219.88;5087772;28;20028;-66
2021/10/03 02:15:16;;;;;;;4.93;3.63;;;;;;;12.90;78.12;95208.13;5070436;28;20086;-66
2021/10/03 02:17:44;;;;;;;4.93;3.97;;;;;;;12.89;78.02;95217.03;5083474;28;20547;-66
2021/10/03 02:20:10;;;;;;;4.88;4.47;;;;;;;12.90;77.98;95212.59;5077577;28;20783;-66
2021/10/03 02:22:37;;;;;;;7.47;3.90;;;;;;;12.95;77.44;95220.03;5068115;28;20040;-66
2021/10/03 02:25:02;;;;;;;5.18;4.20;;;;;;;12.95;77.41;95206.81;5090915;28;20055;-66
2021/10/03 02:27:28;;;;;;;3.85;3.50;;;;;;;13.01;77.35;95206.94;5088632;28;20032;-66
2021/10/03 02:29:54;;;;;;;5.10;4.28;;;;;;;12.97;77.62;95203.00;5090523;28;20044;-66
2021/10/03 02:32:20;;;;;;;4.50;3.90;;;;;;;12.93;78.29;95185.00;5091440;28;20510;-66
2021/10/03 02:34:46;;;;;;;5.38;3.95;;;;;;;12.93;77.96;95208.78;5088570;28;20040;-67
2021/10/03 02:37:14;;;;;;;4.18;3.78;;;;;;;12.94;78.13;95203.34;5089488;28;20047;-66
2021/10/03 02:39:43;;;;;;;4.40;4.05;;;;;;;12.94;78.31;95191.97;5097977;28;20552;-65
2021/10/03 02:42:11;;;;;;;4.53;3.90;;;;;;;12.91;78.57;95190.47;5084485;28;20028;-66
2021/10/03 02:44:37;;;;;;;4.28;3.88;;;;;;;12.84;78.66;95194.78;5097446;28;20040;-65
2021/10/03 02:47:06;;;;;;;4.00;3.78;;;;;;;12.87;78.38;95187.31;5090862;28;20032;-65
2021/10/03 02:49:32;;;;;;;4.57;4.10;;;;;;;12.88;78.55;95186.34;5094963;28;20028;-65
2021/10/03 02:52:04;;;;;;;4.05;3.72;;;;;;;12.85;78.61;95193.78;5086245;28;20039;-68
2021/10/03 02:54:30;;;;;;;4.20;3.80;;;;;;;12.96;77.13;95184.69;5082240;28;20040;-65
2021/10/03 02:57:04;;;;;;;4.53;4.13;;;;;;;13.00;76.60;95175.41;5093385;28;20038;-65
2021/10/03 02:59:36;;;;;;;3.50;3.20;;;;;;;13.11;75.62;95169.75;5093642;28;20028;-65
2021/10/03 03:02:02;;;;;;;5.88;3.95;;;;;;;13.10;75.92;95159.38;5088378;28;20101;-68
2021/10/03 03:04:27;;;;;;;4.32;3.78;;;;;;;13.14;75.49;95161.47;5088076;28;20448;-66
2021/10/03 03:06:53;;;;;;;4.43;4.03;;;;;;;13.18;75.35;95149.59;5090522;28;20032;-66
2021/10/03 03:09:18;;;;;;;4.20;3.88;;;;;;;13.13;75.80;95146.63;5090361;28;20157;-66
2021/10/03 03:11:44;;;;;;;4.35;3.80;;;;;;;13.10;75.98;95143.50;5092185;28;20089;-66
2021/10/03 03:14:11;;;;;;;4.78;4.15;;;;;;;13.05;75.98;95141.38;5099016;28;20047;-66
2021/10/03 03:16:50;;;;;;;4.82;4.28;;;;;;;13.02;77.27;95136.44;5083381;28;20037;-66
2021/10/03 03:19:20;;;;;;;5.25;4.35;;;;;;;13.03;76.65;95130.16;5086800;28;20033;-65
2021/10/03 03:21:48;;;;;;;4.32;3.67;;;;;;;13.01;76.38;95130.31;5089400;28;20039;-65
2021/10/03 03:24:14;;;;;;;7.13;4.05;;;;;;;13.04;76.64;95126.50;5073738;28;20058;-65
2021/10/03 03:26:43;;;;;;;3.72;3.42;;;;;;;13.03;76.86;95130.97;5103653;28;20035;-65
2021/10/03 03:29:09;;;;;;;5.97;3.60;;;;;;;13.05;77.29;95128.16;5100378;28;20039;-65
2021/10/03 03:31:42;;;;;;;6.20;3.97;;;;;;;13.08;76.83;95132.28;5084260;28;20028;-66
2021/10/03 03:34:11;;;;;;;3.80;3.50;;;;;;;13.12;76.86;95126.47;5070238;28;20048;-66
2021/10/03 03:36:43;;;;;;;5.10;3.88;;;;;;;13.08;76.89;95119.09;5069801;28;20025;-66
2021/10/03 03:39:09;;;;;;;7.10;3.65;;;;;;;13.03;77.16;95115.09;5095065;28;20122;-66
2021/10/03 03:41:37;;;;;;;7.03;3.67;;;;;;;13.07;76.26;95118.25;5072760;28;20040;-65
2021/10/03 03:44:03;;;;;;;8.68;3.70;;;;;;;13.10;76.49;95109.16;5077656;28;20033;-66
2021/10/03 03:46:34;;;;;;;3.85;3.55;;;;;;;13.12;76.13;95113.25;5091195;28;20039;-65
2021/10/03 03:49:00;;;;;;;3.95;3.65;;;;;;;13.17;76.44;95108.31;5073720;28;20053;-66
2021/10/03 03:51:25;;;;;;;3.75;3.50;;;;;;;13.15;76.66;95112.94;5070702;28;20126;-66
2021/10/03 03:54:03;;;;;;;4.93;3.70;;;;;;;13.17;76.67;95118.88;5071151;28;20051;-66
2021/10/03 03:56:28;;;;;;;4.28;3.90;;;;;;;13.11;77.38;95106.31;5071119;28;20032;-65
2021/10/03 03:58:54;;;;;;;12.48;4.00;;;;;;;13.26;75.41;95105.59;5088252;28;20635;-66
2021/10/03 04:01:20;;;;;;;3.67;3.42;;;;;;;13.24;75.45;95116.34;5098843;28;20028;-66
2021/10/03 04:03:46;;;;;;;3.80;3.40;;;;;;;13.30;75.02;95106.91;5089658;28;20040;-65
2021/10/03 04:06:12;;;;;;;3.92;3.30;;;;;;;13.24;75.53;95108.41;5054611;28;20114;-65
2021/10/03 04:08:43;;;;;;;5.22;3.83;;;;;;;13.25;75.81;95112.69;5084016;28;20123;-66
2021/10/03 04:11:11;;;;;;;3.72;3.53;;;;;;;13.17;75.94;95110.94;5086822;28;20083;-65
2021/10/03 04:13:37;;;;;;;3.33;3.13;;;;;;;13.13;76.28;95106.16;5087643;28;20105;-66
2021/10/03 04:16:02;;;;;;;3.75;3.45;;;;;;;13.08;76.87;95109.31;5088848;28;20043;-66
2021/10/03 04:18:28;;;;;;;3.72;3.42;;;;;;;13.04;77.17;95110.66;5089251;28;20035;-66
2021/10/03 04:20:54;;;;;;;3.65;3.35;;;;;;;13.10;77.14;95120.53;5086975;28;20078;-66
2021/10/03 04:23:22;;;;;;;6.82;4.18;;;;;;;13.05;77.46;95104.38;5091585;28;20024;-65
2021/10/03 04:25:48;;;;;;;4.05;3.40;;;;;;;13.01;77.31;95108.38;5088282;28;20059;-65
2021/10/03 04:28:13;;;;;;;3.85;3.55;;;;;;;13.00;77.46;95112.81;5091696;28;20036;-66
2021/10/03 04:30:39;;;;;;;3.67;3.38;;;;;;;12.99;77.08;95110.34;5090566;28;20043;-65
2021/10/03 04:33:04;;;;;;;3.97;3.55;;;;;;;13.04;76.22;95108.03;5084573;28;20039;-65
2021/10/03 04:35:30;;;;;;;3.38;3.17;;;;;;;13.09;75.78;95120.72;5088949;28;20537;-65
2021/10/03 04:37:56;;;;;;;3.95;3.55;;;;;;;13.15;75.82;95109.47;5088596;28;20032;-66
2021/10/03 04:40:30;;;;;;;3.85;3.38;;;;;;;13.14;76.49;95108.63;5086652;28;20032;-66
2021/10/03 04:43:02;;;;;;;3.67;3.38;;;;;;;13.11;76.58;95108.97;5049586;28;20516;-65
2021/10/03 04:45:27;;;;;;;5.72;3.63;;;;;;;13.13;75.74;95114.91;5065186;28;20032;-65
2021/10/03 04:48:02;;;;;;;8.52;3.53;;;;;;;13.34;73.94;95105.56;5082358;28;20454;-66
2021/10/03 04:50:33;;;;;;;4.03;3.60;;;;;;;13.38;73.42;95122.75;5085481;28;20095;-65
2021/10/03 04:52:58;;;;;;;3.50;3.20;;;;;;;13.42;73.02;95100.25;5082518;28;20048;-65
2021/10/03 04:55:24;;;;;;;4.28;3.63;;;;;;;13.43;72.79;95112.50;5065246;28;20032;-66
2021/10/03 04:57:52;;;;;;;4.00;3.60;;;;;;;13.40;72.81;95104.88;5089231;28;20483;-65
2021/10/03 05:00:21;;;;;;;6.05;3.50;;;;;;;13.42;73.00;95112.63;5086782;28;20115;-65
2021/10/03 05:02:54;;;;;;;3.80;3.47;;;;;;;13.38;73.24;95109.53;5089271;28;20509;-65
2021/10/03 05:05:28;;;;;;;6.88;3.17;;;;;;;13.47;72.68;95105.00;5086642;28;20058;-66
2021/10/03 05:07:56;;;;;;;3.70;3.40;;;;;;;13.38;73.07;95103.41;5089838;28;20036;-66
2021/10/03 05:10:22;;;;;;;3.33;3.13;;;;;;;13.36;73.23;95090.34;5099769;28;20031;-66
2021/10/03 05:12:47;;;;;;;4.13;3.22;;;;;;;13.33;73.48;95088.88;5087153;28;20109;-66
2021/10/03 05:15:13;;;;;;;3.70;3.15;;;;;;;13.28;74.00;95098.31;5094587;28;20072;-65
2021/10/03 05:17:38;;;;;;;5.05;3.50;;;;;;;13.20;74.96;95095.75;5090761;28;20039;-66
2021/10/03 05:20:10;;;;;;;4.15;3.42;;;;;;;13.07;75.67;95097.09;5094106;28;20089;-65
2021/10/03 05:22:35;;;;;;;5.00;3.55;;;;;;;13.05;75.58;95083.25;5090320;28;20119;-65
2021/10/03 05:25:02;;;;;;;6.45;3.70;;;;;;;13.03;76.13;95074.66;5084799;28;20139;-65
2021/10/03 05:27:29;;;;;;;4.00;3.50;;;;;;;13.03;75.55;95070.19;5106494;28;20115;-65
2021/10/03 05:29:57;;;;;;;3.70;3.40;;;;;;;13.10;75.48;95075.63;5093897;28;20032;-65
2021/10/03 05:32:26;;;;;;;4.40;3.20;;;;;;;13.10;75.58;95072.97;5094634;28;20439;-66
2021/10/03 05:34:57;;;;;;;6.45;2.90;;;;;;;13.10;74.79;95072.16;5097584;28;20073;-65
2021/10/03 05:37:23;;;;;;;3.85;3.30;;;;;;;13.15;74.37;95070.66;5095896;28;20027;-65
2021/10/03 05:39:49;;;;;;;3.63;3.30;;;;;;;13.12;75.35;95068.34;5103419;28;20043;-66
2021/10/03 05:42:14;;;;;;;8.68;3.58;;;;;;;13.08;75.54;95077.59;5082361;28;20055;-65
2021/10/03 05:44:40;;;;;;;4.13;3.72;;;;;;;13.09;75.55;95076.59;5078613;28;20028;-66
2021/10/03 05:47:15;;;;;;;7.15;3.50;;;;;;;13.09;76.48;95081.91;5084530;28;20028;-64
2021/10/03 05:49:41;;;;;;;4.00;3.58;;;;;;;13.07;75.87;95081.25;5078111;28;20035;-65
2021/10/03 05:52:09;;;;;;;5.18;3.47;;;;;;;13.10;76.09;95085.38;5083534;28;20028;-65
2021/10/03 05:54:34;;;;;;;3.95;3.65;;;;;;;13.14;74.79;95086.66;5091434;28;20028;-65
2021/10/03 05:57:00;;;;;;;3.50;3.30;;;;;;;13.18;74.72;95087.97;5075288;28;20043;-65
2021/10/03 05:59:37;;;;;;;3.83;3.53;;;;;;;13.21;74.94;95094.75;5091687;28;20101;-65
2021/10/03 06:02:03;;;;;;;4.05;3.70;;;;;;;13.24;74.82;95089.09;5074544;28;20034;-65
2021/10/03 06:04:29;;;;;;;5.43;3.38;;;;;;;13.28;74.52;95091.22;5090241;28;20110;-65
2021/10/03 06:06:54;;;;;;;3.47;3.17;;;;;;;13.31;74.11;95090.03;5096187;28;20047;-66
2021/10/03 06:09:20;;;;;;;4.72;3.50;;;;;;;13.33;74.00;95096.81;5087240;28;20027;-66
2021/10/03 06:11:45;;;;;;;3.72;3.42;;;;;;;13.32;74.46;95091.69;5089265;28;20025;-66
2021/10/03 06:14:11;;;;;;;5.53;3.30;;;;;;;13.31;74.90;95103.25;5086486;28;20052;-67
2021/10/03 06:16:36;;;;;;;4.97;3.40;;;;;;;13.33;74.49;95098.63;5088940;28;20414;-67
2021/10/03 06:19:02;;;;;;;3.45;3.15;;;;;;;13.42;74.65;95105.53;5096281;28;20040;-67
2021/10/03 06:21:34;;;;;;;5.88;3.42;;;;;;;13.46;74.11;95092.78;5076067;28;20694;-68
2021/10/03 06:24:06;;;;;;;3.15;2.95;;;;;;;13.53;72.52;95093.75;5087893;28;20411;-69
2021/10/03 06:26:32;;;;;;;3.88;2.97;;;;;;;13.71;72.03;95100.59;5083384;28;20036;-69
2021/10/03 06:28:58;;;;;;;3.47;3.08;;;;;;;13.67;72.03;95100.13;5085721;28;20111;-71
2021/10/03 06:31:23;;;;;;;3.42;3.05;;;;;;;13.82;70.18;95091.44;5082170;28;20380;-72
2021/10/03 06:33:49;;;;;;;8.20;3.40;;;;;;;13.90;69.84;95092.16;5095454;28;20059;-70
2021/10/03 06:36:15;;;;;;;3.72;2.92;;;;;;;13.95;69.97;95096.94;5095149;28;20036;-69
2021/10/03 06:38:40;;;;;;;4.60;3.15;;;;;;;13.99;70.94;95094.75;5086190;28;20082;-70
2021/10/03 06:41:09;;;;;;;3.33;2.95;;;;;;;14.01;70.75;95104.16;5083850;28;20028;-69
2021/10/03 06:43:38;;;;;;;3.45;3.15;;;;;;;14.11;70.13;95097.81;5088039;28;20055;-69
2021/10/03 06:46:08;;;;;;;3.63;3.42;;;;;;;14.15;70.47;95102.56;5089576;28;20449;-71
2021/10/03 06:48:37;;;;;;;3.47;3.28;;;;;;;14.15;70.91;95110.50;5094417;28;20560;-70
2021/10/03 06:51:02;;;;;;;3.75;3.30;;;;;;;14.14;71.42;95108.84;5087952;28;20036;-70
2021/10/03 06:53:57;;;;;;;13.70;3.53;;;;;;;14.13;72.88;95107.19;5089339;28;20406;-65
2021/10/03 06:56:23;;;;;;;3.83;3.42;;;;;;;14.15;72.71;95104.38;5089870;28;20032;-64
2021/10/03 06:58:49;;;;;;;4.32;3.95;;;;;;;14.16;73.05;95111.31;5093631;28;20129;-65
2021/10/03 07:01:15;;;;;;;3.75;3.45;;;;;;;14.15;73.20;95115.81;5088935;28;20486;-66
2021/10/03 07:03:42;;;;;;;5.43;3.38;;;;;;;14.16;73.41;95116.63;5089871;28;20047;-67
2021/10/03 07:06:07;;;;;;;6.20;3.83;;;;;;;14.20;73.04;95114.44;5091092;28;20891;-66
2021/10/03 07:08:33;;;;;;;3.42;3.17;;;;;;;14.30;72.19;95113.19;5090908;28;20048;-63
2021/10/03 07:11:03;;;;;;;8.73;3.30;;;;;;;14.32;72.72;95115.63;5078155;28;20036;-65
2021/10/03 07:13:35;;;;;;;3.63;3.42;;;;;;;14.36;72.66;95116.94;5088350;28;20088;-70
2021/10/03 07:16:00;;;;;;;3.50;3.30;;;;;;;14.38;72.81;95124.69;5068512;28;20028;-59
2021/10/03 07:18:26;;;;;;;3.50;3.25;;;;;;;14.44;72.67;95123.97;5079249;28;20069;-59
2021/10/03 07:20:52;;;;;;;3.58;3.20;;;;;;;14.51;71.63;95116.97;5074379;28;20085;-59
2021/10/03 07:23:21;;;;;;;3.50;3.20;;;;;;;14.57;71.80;95124.19;5081168;28;20407;-59
2021/10/03 07:25:46;;;;;;;3.35;3.00;;;;;;;14.60;71.77;95126.47;5080208;28;20068;-60
2021/10/03 07:28:12;;;;;;;3.72;3.42;;;;;;;14.68;71.72;95122.91;5050206;28;20495;-59
2021/10/03 07:30:38;;;;;;;6.82;2.88;;;;;;;14.77;71.48;95118.41;5063712;28;20029;-59
2021/10/03 07:33:04;;;;;;;4.68;3.30;;;;;;;14.86;70.91;95127.09;5053203;28;20033;-61
2021/10/03 07:35:30;;;;;;;5.22;3.55;;;;;;;15.01;70.51;95117.28;5056333;28;20094;-58
2021/10/03 07:37:56;;;;;;;4.80;3.17;;;;;;;15.19;69.87;95118.72;5058607;28;20538;-61
2021/10/03 07:40:24;;;;;;;3.63;2.80;;;;;;;15.38;69.16;95122.66;5056994;28;20432;-59
2021/10/03 07:42:50;;;;;;;3.38;3.10;;;;;;;15.63;69.17;95105.56;5054346;28;20033;-61
2021/10/03 07:45:16;;;;;;;3.33;2.88;;;;;;;15.87;68.05;95109.69;5054270;28;20040;-59
2021/10/03 07:47:47;;;;;;;4.40;3.15;;;;;;;16.16;67.12;95110.59;5059540;28;20116;-59
2021/10/03 07:50:13;;;;;;;8.48;3.75;;;;;;;16.43;66.16;95103.66;5055352;28;20037;-59
2021/10/03 07:52:38;;;;;;;3.40;3.05;;;;;;;16.59;65.83;95104.41;5070881;28;20403;-59
2021/10/03 07:55:04;;;;;;;3.10;2.90;;;;;;;16.75;65.35;95098.75;5051400;28;20572;-59
2021/10/03 07:57:30;;;;;;;4.40;3.08;;;;;;;16.84;65.27;95103.94;5070466;28;20020;-59
2021/10/03 07:59:56;;;;;;;5.70;2.70;;;;;;;16.86;65.15;95117.84;5066394;28;20039;-59
2021/10/03 08:02:21;;;;;;;3.00;2.75;;;;;;;16.89;65.16;95120.13;5055450;28;20511;-59
2021/10/03 08:04:47;;;;;;;3.58;3.30;;;;;;;17.01;64.76;95112.44;5066081;28;20087;-60
2021/10/03 08:07:19;;;;;;;3.88;3.15;;;;;;;17.07;64.02;95116.97;5067424;28;20054;-59
2021/10/03 08:09:44;;;;;;;3.58;2.72;;;;;;;17.00;64.96;95116.94;5066652;28;20567;-59
2021/10/03 08:12:10;;;;;;;5.97;3.60;;;;;;;17.07;63.90;95116.16;5064543;28;20036;-60
2021/10/03 08:14:41;;;;;;;3.53;3.25;;;;;;;17.11;64.26;95107.56;5066468;28;20040;-60
2021/10/03 08:17:13;;;;;;;3.00;2.80;;;;;;;17.24;63.56;95103.34;5066195;28;20040;-59
2021/10/03 08:19:38;;;;;;;2.90;2.70;;;;;;;17.29;63.04;95114.19;5067368;28;20059;-59
2021/10/03 08:22:04;;;;;;;4.32;2.70;;;;;;;17.28;63.19;95115.22;5066868;28;20080;-60
2021/10/03 08:24:31;;;;;;;5.57;3.17;;;;;;;17.21;63.93;95117.84;5065442;28;20097;-60
2021/10/03 16:28:32;;;;;;;5.68;4.28;;;;;;;18.32;60.73;95123.91;6149106;23;1333885;-58
2021/10/03 16:30:57;;;;;;;4.60;4.07;;;;;;;18.31;59.97;95127.59;6206470;23;20021;-58
2021/10/03 16:33:23;;;;;;;4.38;4.07;;;;;;;18.45;56.01;95124.91;6205942;23;20015;-58
2021/10/03 16:35:49;;;;;;;4.85;4.45;;;;;;;18.75;52.21;95132.50;6205992;23;20432;-58
2021/10/03 16:38:15;;;;;;;7.80;4.80;;;;;;;18.97;51.61;95124.25;6206204;23;20016;-57
2021/10/03 16:40:41;;;;;;;5.85;4.00;;;;;;;18.76;55.84;95129.59;6205762;23;20009;-58
2021/10/03 16:43:07;;;;;;;4.72;4.30;;;;;;;18.50;58.76;95134.97;6204435;23;20009;-58
2021/10/03 16:45:32;;;;;;;4.82;4.18;;;;;;;18.28;60.41;95148.47;6204709;22;20395;-57
2021/10/03 16:47:59;;;;;;;5.20;4.80;;;;;;;18.04;61.75;95153.38;6180090;23;20043;-58
2021/10/03 16:50:25;;;;;;;5.60;4.20;;;;;;;17.94;62.28;95168.91;6207860;23;20008;-58
2021/10/03 16:52:51;;;;;;;5.45;4.28;;;;;;;18.15;61.30;95160.78;6207789;23;20104;-58
2021/10/03 16:55:17;;;;;;;4.72;4.28;;;;;;;18.31;60.03;95180.88;6206863;23;20040;-58
2021/10/03 16:57:43;;;;;;;5.05;4.65;;;;;;;18.41;60.31;95188.47;6207825;23;20009;-58
2021/10/03 17:00:10;;;;;;;5.55;5.05;;;;;;;18.37;60.29;95191.75;6207561;23;20008;-58
2021/10/03 17:02:35;;;;;;;5.78;5.00;;;;;;;18.27;60.86;95203.63;6180979;23;20004;-58
2021/10/03 17:05:01;;;;;;;19.67;5.50;;;;;;;18.33;61.39;95201.97;6208026;23;20125;-58
2021/10/03 17:07:26;;;;;;;6.22;4.82;;;;;;;18.20;62.39;95229.41;6205538;23;20012;-58
2021/10/03 17:09:51;;;;;;;5.55;5.05;;;;;;;18.08;63.23;95233.69;6206826;23;20432;-58
2021/10/03 17:12:17;;;;;;;5.03;4.68;;;;;;;18.01;63.79;95246.97;6207666;23;20024;-59
2021/10/03 17:14:42;;;;;;;7.63;5.07;;;;;;;17.99;63.92;95276.44;6207278;23;20042;-59
2021/10/03 17:17:08;;;;;;;4.55;4.25;;;;;;;17.95;64.67;95288.50;6206316;23;20011;-59
2021/10/03 17:19:33;;;;;;;10.20;4.68;;;;;;;17.84;65.82;95291.75;6207644;23;20344;-61
2021/10/03 17:21:58;;;;;;;5.53;5.13;;;;;;;17.68;67.05;95308.84;6207592;23;20011;-59
2021/10/03 17:24:24;;;;;;;5.45;5.05;;;;;;;17.49;69.93;95323.69;6207162;23;20004;-60
2021/10/03 17:26:51;;;;;;;6.32;5.72;;;;;;;17.24;72.87;95332.94;6207846;23;20017;-60
2021/10/03 17:29:17;;;;;;;6.40;5.50;;;;;;;17.03;74.91;95363.03;6207549;23;20001;-60
2021/10/03 17:31:43;;;;;;;7.75;5.70;;;;;;;16.91;76.92;95378.63;6207409;23;20009;-60
2021/10/03 17:34:08;;;;;;;6.20;5.70;;;;;;;16.64;78.22;95388.16;6207567;23;20111;-59
2021/10/03 17:36:34;;;;;;;6.88;5.97;;;;;;;16.41;80.47;95394.44;6207022;23;20028;-59
2021/10/03 17:38:59;;;;;;;5.60;5.00;;;;;;;16.27;81.27;95383.66;6207790;23;20005;-61
2021/10/03 17:41:26;;;;;;;6.38;5.88;;;;;;;16.09;82.83;95401.78;6207452;23;20083;-60
2021/10/03 17:43:51;;;;;;;5.57;5.07;;;;;;;15.89;84.68;95420.91;6207591;23;20001;-59
2021/10/03 17:46:17;;;;;;;5.20;4.80;;;;;;;15.76;85.26;95434.78;6206701;23;20004;-60
2021/10/03 17:48:42;;;;;;;6.00;5.50;;;;;;;15.70;85.17;95441.63;6207675;23;20348;-61
2021/10/03 17:51:09;;;;;;;7.63;5.45;;;;;;;15.58;87.16;95469.59;6207796;23;20020;-61
2021/10/03 17:53:36;;;;;;;11.85;5.45;;;;;;;15.52;87.72;95470.31;6207480;23;20442;-61
2021/10/03 17:56:03;;;;;;;5.90;5.38;;;;;;;15.49;89.01;95454.75;6207523;23;20057;-60
2021/10/03 17:58:28;;;;;;;5.68;5.10;;;;;;;15.38;89.66;95456.84;6205826;23;20476;-59
2021/10/03 18:00:54;;;;;;;5.53;5.15;;;;;;;15.40;89.46;95460.13;6206652;23;20012;-60
2021/10/03 18:03:20;;;;;;;8.77;5.88;;;;;;;15.41;90.60;95482.16;6206920;23;20384;-60
2021/10/03 18:05:45;;;;;;;6.00;5.40;;;;;;;15.37;91.09;95494.97;6207288;23;20001;-60
2021/10/03 18:08:11;;;;;;;6.10;5.40;;;;;;;15.32;93.04;95513.22;6207481;23;20081;-60
2021/10/03 18:10:36;;;;;;;5.78;5.25;;;;;;;15.24;93.42;95516.75;6206523;23;20030;-61
2021/10/03 18:13:02;;;;;;;5.63;5.13;;;;;;;15.23;93.25;95516.94;6206993;23;20008;-61
2021/10/03 18:15:28;;;;;;;9.13;5.07;;;;;;;15.16;93.98;95520.31;6207614;23;20158;-60
2021/10/03 18:17:55;;;;;;;5.82;5.32;;;;;;;15.21;92.95;95509.16;6207793;23;20008;-61
2021/10/03 18:20:20;;;;;;;7.07;5.25;;;;;;;15.15;93.79;95512.50;6207777;23;20008;-61
2021/10/03 18:22:46;;;;;;;6.68;5.50;;;;;;;15.12;95.34;95515.50;6207160;23;20005;-60
2021/10/03 18:25:13;;;;;;;5.03;4.60;;;;;;;15.11;95.44;95514.69;6207385;23;20011;-61
2021/10/03 18:27:39;;;;;;;5.80;4.80;;;;;;;15.09;94.22;95508.72;6206606;23;20052;-60
2021/10/03 18:30:07;;;;;;;12.07;5.18;;;;;;;15.01;94.53;95491.03;6207223;23;20009;-62
2021/10/03 18:32:33;;;;;;;6.22;4.82;;;;;;;14.97;96.10;95491.56;6180576;22;20005;-61
2021/10/03 18:34:58;;;;;;;5.32;4.68;;;;;;;14.97;97.28;95491.56;6207023;23;20344;-61
2021/10/03 18:37:24;;;;;;;5.18;4.68;;;;;;;14.98;97.02;95501.19;6206914;23;20438;-60
2021/10/03 18:39:49;;;;;;;5.35;4.50;;;;;;;14.95;97.43;95507.66;6207294;23;20004;-60
2021/10/03 18:42:15;;;;;;;10.93;5.03;;;;;;;14.93;97.41;95514.13;6207244;23;20008;-61
2021/10/03 18:44:43;;;;;;;8.48;6.85;;;;;;;14.94;96.70;95511.28;6206967;23;20032;-61
2021/10/03 18:47:09;;;;;;;6.75;6.15;;;;;;;14.89;96.25;95511.81;6206684;23;20095;-61
2021/10/03 18:49:34;;;;;;;4.57;4.18;;;;;;;14.84;97.69;95511.50;6206307;23;20044;-62
2021/10/03 18:52:01;;;;;;;3.45;3.15;;;;;;;14.82;97.45;95526.75;6207337;23;20448;-62
2021/10/03 18:54:27;;;;;;;3.60;3.30;;;;;;;14.78;97.46;95536.06;6180774;23;20013;-62
2021/10/03 18:56:52;;;;;;;3.40;3.10;;;;;;;14.77;97.41;95544.16;6206705;23;20012;-62
2021/10/03 18:59:26;;;;;;;5.03;3.60;;;;;;;14.75;97.56;95554.94;6207236;23;20464;-63
2021/10/03 19:01:55;;;;;;;4.10;3.78;;;;;;;14.80;98.01;95568.50;6206930;23;20093;-67
2021/10/03 19:04:20;;;;;;;4.13;3.72;;;;;;;14.78;98.72;95585.56;6207183;23;20484;-64
2021/10/03 19:06:48;;;;;;;6.15;4.43;;;;;;;14.75;99.87;95590.22;6207459;23;20012;-64
2021/10/03 19:09:14;;;;;;;4.30;3.75;;;;;;;14.75;99.04;95581.44;6207263;23;20504;-63
2021/10/03 19:11:43;;;;;;;6.32;4.07;;;;;;;14.72;100.00;95579.16;6205340;23;20099;-65
2021/10/03 19:14:08;;;;;;;4.03;3.60;;;;;;;14.71;99.04;95582.78;6207013;23;20004;-64
2021/10/03 19:16:34;;;;;;;7.03;3.80;;;;;;;14.68;99.64;95583.91;6207262;23;20011;-64
2021/10/03 19:18:59;;;;;;;4.45;4.05;;;;;;;14.71;100.00;95585.44;6208004;23;20580;-65
2021/10/03 19:21:28;;;;;;;3.75;3.45;;;;;;;14.67;98.76;95592.03;6207179;23;20015;-63
2021/10/03 19:24:00;;;;;;;5.00;3.58;;;;;;;14.60;99.77;95583.94;6207394;23;20004;-64
2021/10/03 19:26:26;;;;;;;5.10;4.70;;;;;;;14.60;99.17;95586.59;6206665;23;20005;-64
2021/10/03 19:28:51;;;;;;;4.15;3.78;;;;;;;14.60;99.61;95586.59;6207307;23;20399;-64
2021/10/03 19:31:17;;;;;;;4.18;3.45;;;;;;;14.56;100.00;95588.75;6207487;23;20477;-64
2021/10/03 19:33:42;;;;;;;9.88;4.00;;;;;;;14.61;100.00;95594.38;6207251;23;20037;-64
2021/10/03 19:36:08;;;;;;;4.32;4.03;;;;;;;14.61;100.00;95597.00;6207541;23;20081;-64